sensor_id;sensor_type;location;lat;lon;timestamp;P1;durP1;ratioP1;P2;durP2;ratioP2
20725;SDS011;10524;48.132;8.518;2023-04-05T00:01:21;19.58;;;11.98;;
20725;SDS011;10524;48.132;8.518;2023-04-05T00:03:49;17.75;;;12.27;;
20725;SDS011;10524;48.132;8.518;2023-04-05T00:06:16;16.30;;;11.45;;
20725;SDS011;10524;48.132;8.518;2023-04-05T00:08:42;18.13;;;11.52;;
20725;SDS011;10524;48.132;8.518;2023-04-05T00:11:13;14.45;;;10.75;;
20725;SDS011;10524;48.132;8.518;2023-04-05T00:13:42;14.35;;;9.77;;
20725;SDS011;10524;48.132;8.518;2023-04-05T00:16:08;14.70;;;10.60;;
20725;SDS011;10524;48.132;8.518;2023-04-05T00:18:34;15.95;;;10.32;;
20725;SDS011;10524;48.132;8.518;2023-04-05T00:21:02;15.60;;;10.77;;
20725;SDS011;10524;48.132;8.518;2023-04-05T00:23:28;12.77;;;10.10;;
20725;SDS011;10524;48.132;8.518;2023-04-05T00:25:53;15.95;;;10.30;;
20725;SDS011;10524;48.132;8.518;2023-04-05T00:28:19;12.68;;;8.88;;
20725;SDS011;10524;48.132;8.518;2023-04-05T00:30:44;15.02;;;8.90;;
20725;SDS011;10524;48.132;8.518;2023-04-05T00:33:11;13.95;;;10.10;;
20725;SDS011;10524;48.132;8.518;2023-04-05T00:35:37;15.77;;;9.63;;
20725;SDS011;10524;48.132;8.518;2023-04-05T00:38:03;14.55;;;10.60;;
20725;SDS011;10524;48.132;8.518;2023-04-05T00:40:28;14.73;;;10.27;;
20725;SDS011;10524;48.132;8.518;2023-04-05T00:42:54;15.65;;;9.18;;
20725;SDS011;10524;48.132;8.518;2023-04-05T00:45:20;13.90;;;9.05;;
20725;SDS011;10524;48.132;8.518;2023-04-05T00:47:47;14.95;;;10.85;;
20725;SDS011;10524;48.132;8.518;2023-04-05T00:50:14;13.73;;;10.48;;
20725;SDS011;10524;48.132;8.518;2023-04-05T00:52:40;13.80;;;9.77;;
20725;SDS011;10524;48.132;8.518;2023-04-05T00:55:07;16.50;;;10.45;;
20725;SDS011;10524;48.132;8.518;2023-04-05T00:57:34;13.93;;;9.52;;
20725;SDS011;10524;48.132;8.518;2023-04-05T01:00:03;14.20;;;10.32;;
20725;SDS011;10524;48.132;8.518;2023-04-05T01:02:34;14.77;;;9.30;;
20725;SDS011;10524;48.132;8.518;2023-04-05T01:11:03;14.13;;;8.98;;
20725;SDS011;10524;48.132;8.518;2023-04-05T01:13:31;15.48;;;9.93;;
20725;SDS011;10524;48.132;8.518;2023-04-05T01:15:57;12.52;;;9.60;;
20725;SDS011;10524;48.132;8.518;2023-04-05T01:18:22;12.88;;;9.88;;
20725;SDS011;10524;48.132;8.518;2023-04-05T01:21:16;13.48;;;9.50;;
20725;SDS011;10524;48.132;8.518;2023-04-05T01:26:52;16.40;;;12.02;;
20725;SDS011;10524;48.132;8.518;2023-04-05T01:37:52;15.80;;;11.65;;
20725;SDS011;10524;48.132;8.518;2023-04-05T01:40:23;15.98;;;11.40;;
20725;SDS011;10524;48.132;8.518;2023-04-05T01:42:50;13.70;;;9.98;;
20725;SDS011;10524;48.132;8.518;2023-04-05T01:45:16;12.63;;;10.50;;
20725;SDS011;10524;48.132;8.518;2023-04-05T01:47:42;14.15;;;10.98;;
20725;SDS011;10524;48.132;8.518;2023-04-05T01:50:08;13.95;;;9.73;;
20725;SDS011;10524;48.132;8.518;2023-04-05T01:52:34;18.23;;;11.73;;
20725;SDS011;10524;48.132;8.518;2023-04-05T01:54:59;15.13;;;11.07;;
20725;SDS011;10524;48.132;8.518;2023-04-05T01:57:25;19.15;;;12.52;;
20725;SDS011;10524;48.132;8.518;2023-04-05T01:59:50;17.20;;;12.65;;
20725;SDS011;10524;48.132;8.518;2023-04-05T02:02:16;17.92;;;12.50;;
20725;SDS011;10524;48.132;8.518;2023-04-05T02:04:42;17.23;;;11.82;;
20725;SDS011;10524;48.132;8.518;2023-04-05T02:07:07;17.88;;;12.23;;
20725;SDS011;10524;48.132;8.518;2023-04-05T02:09:33;19.10;;;11.77;;
20725;SDS011;10524;48.132;8.518;2023-04-05T02:11:58;18.85;;;12.45;;
20725;SDS011;10524;48.132;8.518;2023-04-05T02:14:25;16.48;;;12.38;;
20725;SDS011;10524;48.132;8.518;2023-04-05T02:16:51;16.20;;;10.90;;
20725;SDS011;10524;48.132;8.518;2023-04-05T02:19:20;15.10;;;10.85;;
20725;SDS011;10524;48.132;8.518;2023-04-05T02:21:51;14.43;;;10.75;;
20725;SDS011;10524;48.132;8.518;2023-04-05T02:24:20;17.58;;;11.27;;
20725;SDS011;10524;48.132;8.518;2023-04-05T02:26:46;14.57;;;11.07;;
20725;SDS011;10524;48.132;8.518;2023-04-05T02:29:12;16.92;;;13.02;;
20725;SDS011;10524;48.132;8.518;2023-04-05T02:31:37;15.18;;;12.23;;
20725;SDS011;10524;48.132;8.518;2023-04-05T02:34:03;15.75;;;11.90;;
20725;SDS011;10524;48.132;8.518;2023-04-05T02:36:30;15.63;;;11.85;;
20725;SDS011;10524;48.132;8.518;2023-04-05T02:38:55;15.85;;;11.85;;
20725;SDS011;10524;48.132;8.518;2023-04-05T02:41:21;17.73;;;11.82;;
20725;SDS011;10524;48.132;8.518;2023-04-05T02:43:48;14.60;;;11.30;;
20725;SDS011;10524;48.132;8.518;2023-04-05T02:46:14;15.00;;;10.80;;
20725;SDS011;10524;48.132;8.518;2023-04-05T02:48:40;14.48;;;10.23;;
20725;SDS011;10524;48.132;8.518;2023-04-05T02:51:05;16.58;;;11.10;;
20725;SDS011;10524;48.132;8.518;2023-04-05T02:53:31;14.45;;;10.52;;
20725;SDS011;10524;48.132;8.518;2023-04-05T02:55:56;17.40;;;11.50;;
20725;SDS011;10524;48.132;8.518;2023-04-05T02:58:23;17.83;;;11.77;;
20725;SDS011;10524;48.132;8.518;2023-04-05T03:00:50;15.07;;;11.40;;
20725;SDS011;10524;48.132;8.518;2023-04-05T03:03:17;14.98;;;11.07;;
20725;SDS011;10524;48.132;8.518;2023-04-05T03:05:43;15.73;;;11.25;;
20725;SDS011;10524;48.132;8.518;2023-04-05T03:08:11;13.15;;;9.77;;
20725;SDS011;10524;48.132;8.518;2023-04-05T03:10:43;13.20;;;10.43;;
20725;SDS011;10524;48.132;8.518;2023-04-05T03:13:15;15.48;;;11.57;;
20725;SDS011;10524;48.132;8.518;2023-04-05T03:15:40;16.38;;;11.23;;
20725;SDS011;10524;48.132;8.518;2023-04-05T03:18:06;15.80;;;11.18;;
20725;SDS011;10524;48.132;8.518;2023-04-05T03:20:33;12.05;;;9.75;;
20725;SDS011;10524;48.132;8.518;2023-04-05T03:23:04;16.25;;;11.20;;
20725;SDS011;10524;48.132;8.518;2023-04-05T03:25:33;15.20;;;11.30;;
20725;SDS011;10524;48.132;8.518;2023-04-05T03:28:04;18.23;;;12.05;;
20725;SDS011;10524;48.132;8.518;2023-04-05T03:30:33;14.90;;;11.20;;
20725;SDS011;10524;48.132;8.518;2023-04-05T03:33:01;15.73;;;11.45;;
20725;SDS011;10524;48.132;8.518;2023-04-05T03:35:30;18.55;;;13.05;;
20725;SDS011;10524;48.132;8.518;2023-04-05T03:37:55;18.40;;;12.85;;
20725;SDS011;10524;48.132;8.518;2023-04-05T03:40:21;24.08;;;14.63;;
20725;SDS011;10524;48.132;8.518;2023-04-05T03:42:48;22.92;;;15.63;;
20725;SDS011;10524;48.132;8.518;2023-04-05T03:45:14;22.48;;;15.55;;
20725;SDS011;10524;48.132;8.518;2023-04-05T03:47:39;18.88;;;13.35;;
20725;SDS011;10524;48.132;8.518;2023-04-05T03:50:05;19.45;;;12.50;;
20725;SDS011;10524;48.132;8.518;2023-04-05T03:52:31;19.40;;;13.88;;
20725;SDS011;10524;48.132;8.518;2023-04-05T03:54:57;20.90;;;14.50;;
20725;SDS011;10524;48.132;8.518;2023-04-05T03:57:23;18.58;;;13.82;;
20725;SDS011;10524;48.132;8.518;2023-04-05T03:59:49;24.65;;;15.25;;
20725;SDS011;10524;48.132;8.518;2023-04-05T04:02:15;21.83;;;14.93;;
20725;SDS011;10524;48.132;8.518;2023-04-05T04:04:40;19.73;;;13.45;;
20725;SDS011;10524;48.132;8.518;2023-04-05T04:07:06;17.25;;;12.98;;
20725;SDS011;10524;48.132;8.518;2023-04-05T04:09:32;18.08;;;12.90;;
20725;SDS011;10524;48.132;8.518;2023-04-05T04:11:57;18.00;;;12.57;;
20725;SDS011;10524;48.132;8.518;2023-04-05T04:14:23;21.63;;;14.32;;
20725;SDS011;10524;48.132;8.518;2023-04-05T04:16:49;25.27;;;17.65;;
20725;SDS011;10524;48.132;8.518;2023-04-05T04:19:16;29.38;;;17.40;;
20725;SDS011;10524;48.132;8.518;2023-04-05T04:21:42;21.55;;;15.88;;
20725;SDS011;10524;48.132;8.518;2023-04-05T04:24:15;22.15;;;15.13;;
20725;SDS011;10524;48.132;8.518;2023-04-05T04:26:45;21.45;;;14.20;;
20725;SDS011;10524;48.132;8.518;2023-04-05T04:29:12;18.60;;;13.68;;
20725;SDS011;10524;48.132;8.518;2023-04-05T04:31:40;17.40;;;12.73;;
20725;SDS011;10524;48.132;8.518;2023-04-05T04:34:12;17.15;;;11.98;;
20725;SDS011;10524;48.132;8.518;2023-04-05T04:36:38;20.77;;;12.13;;
20725;SDS011;10524;48.132;8.518;2023-04-05T04:39:06;21.92;;;13.85;;
20725;SDS011;10524;48.132;8.518;2023-04-05T04:41:34;22.70;;;14.32;;
20725;SDS011;10524;48.132;8.518;2023-04-05T04:44:00;22.58;;;13.73;;
20725;SDS011;10524;48.132;8.518;2023-04-05T04:46:30;18.83;;;13.38;;
20725;SDS011;10524;48.132;8.518;2023-04-05T04:49:01;19.88;;;13.80;;
20725;SDS011;10524;48.132;8.518;2023-04-05T04:51:30;21.55;;;14.18;;
20725;SDS011;10524;48.132;8.518;2023-04-05T04:53:57;21.20;;;13.00;;
20725;SDS011;10524;48.132;8.518;2023-04-05T04:56:22;22.25;;;14.52;;
20725;SDS011;10524;48.132;8.518;2023-04-05T04:58:48;18.65;;;13.73;;
20725;SDS011;10524;48.132;8.518;2023-04-05T05:01:13;20.20;;;13.68;;
20725;SDS011;10524;48.132;8.518;2023-04-05T05:03:39;21.17;;;14.15;;
20725;SDS011;10524;48.132;8.518;2023-04-05T05:06:05;20.73;;;14.65;;
20725;SDS011;10524;48.132;8.518;2023-04-05T05:08:31;19.63;;;14.32;;
20725;SDS011;10524;48.132;8.518;2023-04-05T05:10:57;21.73;;;15.27;;
20725;SDS011;10524;48.132;8.518;2023-04-05T05:13:22;24.95;;;17.17;;
20725;SDS011;10524;48.132;8.518;2023-04-05T05:15:48;25.42;;;17.35;;
20725;SDS011;10524;48.132;8.518;2023-04-05T05:18:14;23.65;;;17.27;;
20725;SDS011;10524;48.132;8.518;2023-04-05T05:20:40;22.63;;;17.30;;
20725;SDS011;10524;48.132;8.518;2023-04-05T05:23:06;24.58;;;17.92;;
20725;SDS011;10524;48.132;8.518;2023-04-05T05:25:32;25.48;;;18.58;;
20725;SDS011;10524;48.132;8.518;2023-04-05T05:27:57;25.98;;;18.17;;
20725;SDS011;10524;48.132;8.518;2023-04-05T05:30:24;33.28;;;22.88;;
20725;SDS011;10524;48.132;8.518;2023-04-05T05:32:51;31.63;;;21.25;;
20725;SDS011;10524;48.132;8.518;2023-04-05T05:35:16;26.92;;;19.08;;
20725;SDS011;10524;48.132;8.518;2023-04-05T05:37:42;22.33;;;15.95;;
20725;SDS011;10524;48.132;8.518;2023-04-05T05:40:08;17.25;;;13.00;;
20725;SDS011;10524;48.132;8.518;2023-04-05T05:42:37;14.07;;;10.18;;
20725;SDS011;10524;48.132;8.518;2023-04-05T05:45:04;15.90;;;12.88;;
20725;SDS011;10524;48.132;8.518;2023-04-05T05:47:30;11.57;;;8.05;;
20725;SDS011;10524;48.132;8.518;2023-04-05T05:49:56;8.88;;;7.25;;
20725;SDS011;10524;48.132;8.518;2023-04-05T05:52:22;9.63;;;7.63;;
20725;SDS011;10524;48.132;8.518;2023-04-05T05:54:48;9.82;;;6.55;;
20725;SDS011;10524;48.132;8.518;2023-04-05T05:57:13;8.93;;;6.53;;
20725;SDS011;10524;48.132;8.518;2023-04-05T05:59:39;9.35;;;6.80;;
20725;SDS011;10524;48.132;8.518;2023-04-05T06:02:06;8.65;;;5.43;;
20725;SDS011;10524;48.132;8.518;2023-04-05T06:04:32;8.07;;;5.72;;
20725;SDS011;10524;48.132;8.518;2023-04-05T06:06:58;8.80;;;6.78;;
20725;SDS011;10524;48.132;8.518;2023-04-05T06:09:30;8.00;;;6.10;;
20725;SDS011;10524;48.132;8.518;2023-04-05T06:11:59;11.70;;;9.00;;
20725;SDS011;10524;48.132;8.518;2023-04-05T06:14:25;9.90;;;8.70;;
20725;SDS011;10524;48.132;8.518;2023-04-05T06:16:51;8.65;;;7.00;;
20725;SDS011;10524;48.132;8.518;2023-04-05T06:19:16;8.18;;;6.10;;
20725;SDS011;10524;48.132;8.518;2023-04-05T06:21:42;9.02;;;5.97;;
20725;SDS011;10524;48.132;8.518;2023-04-05T06:24:08;9.88;;;6.72;;
20725;SDS011;10524;48.132;8.518;2023-04-05T06:26:33;6.78;;;5.10;;
20725;SDS011;10524;48.132;8.518;2023-04-05T06:28:59;6.95;;;5.82;;
20725;SDS011;10524;48.132;8.518;2023-04-05T06:31:25;7.72;;;6.20;;
20725;SDS011;10524;48.132;8.518;2023-04-05T06:33:55;7.65;;;6.05;;
20725;SDS011;10524;48.132;8.518;2023-04-05T06:36:20;8.30;;;7.22;;
20725;SDS011;10524;48.132;8.518;2023-04-05T06:38:46;10.07;;;6.78;;
20725;SDS011;10524;48.132;8.518;2023-04-05T06:41:12;8.93;;;6.63;;
20725;SDS011;10524;48.132;8.518;2023-04-05T06:43:37;6.70;;;6.00;;
20725;SDS011;10524;48.132;8.518;2023-04-05T06:46:03;7.97;;;5.65;;
20725;SDS011;10524;48.132;8.518;2023-04-05T06:48:32;6.88;;;5.82;;
20725;SDS011;10524;48.132;8.518;2023-04-05T06:50:59;7.72;;;5.60;;
20725;SDS011;10524;48.132;8.518;2023-04-05T06:53:26;7.25;;;5.40;;
20725;SDS011;10524;48.132;8.518;2023-04-05T06:55:55;6.47;;;5.20;;
20725;SDS011;10524;48.132;8.518;2023-04-05T06:58:22;8.60;;;5.43;;
20725;SDS011;10524;48.132;8.518;2023-04-05T07:00:48;8.85;;;5.57;;
20725;SDS011;10524;48.132;8.518;2023-04-05T07:03:14;6.20;;;5.00;;
20725;SDS011;10524;48.132;8.518;2023-04-05T07:05:40;6.93;;;5.40;;
20725;SDS011;10524;48.132;8.518;2023-04-05T07:08:18;8.18;;;5.38;;
20725;SDS011;10524;48.132;8.518;2023-04-05T07:10:48;7.43;;;5.50;;
20725;SDS011;10524;48.132;8.518;2023-04-05T07:13:14;5.78;;;4.93;;
20725;SDS011;10524;48.132;8.518;2023-04-05T07:15:43;8.10;;;5.55;;
20725;SDS011;10524;48.132;8.518;2023-04-05T07:18:09;7.47;;;5.20;;
20725;SDS011;10524;48.132;8.518;2023-04-05T07:20:36;6.55;;;5.40;;
20725;SDS011;10524;48.132;8.518;2023-04-05T07:23:02;6.57;;;5.03;;
20725;SDS011;10524;48.132;8.518;2023-04-05T07:25:29;6.25;;;5.18;;
20725;SDS011;10524;48.132;8.518;2023-04-05T07:27:56;8.25;;;5.88;;
20725;SDS011;10524;48.132;8.518;2023-04-05T07:30:21;6.93;;;5.85;;
20725;SDS011;10524;48.132;8.518;2023-04-05T07:32:47;7.72;;;5.60;;
20725;SDS011;10524;48.132;8.518;2023-04-05T07:35:13;7.70;;;5.75;;
20725;SDS011;10524;48.132;8.518;2023-04-05T07:37:39;8.13;;;5.43;;
20725;SDS011;10524;48.132;8.518;2023-04-05T07:40:06;7.35;;;5.75;;
20725;SDS011;10524;48.132;8.518;2023-04-05T07:42:34;8.57;;;5.72;;
20725;SDS011;10524;48.132;8.518;2023-04-05T07:45:00;8.10;;;5.70;;
20725;SDS011;10524;48.132;8.518;2023-04-05T07:47:26;6.30;;;5.40;;
20725;SDS011;10524;48.132;8.518;2023-04-05T07:49:51;7.10;;;5.20;;
20725;SDS011;10524;48.132;8.518;2023-04-05T07:52:17;7.63;;;5.55;;
20725;SDS011;10524;48.132;8.518;2023-04-05T07:54:43;6.65;;;5.18;;
20725;SDS011;10524;48.132;8.518;2023-04-05T07:57:10;5.60;;;4.50;;
20725;SDS011;10524;48.132;8.518;2023-04-05T07:59:41;5.77;;;4.47;;
20725;SDS011;10524;48.132;8.518;2023-04-05T08:02:07;7.28;;;5.10;;
20725;SDS011;10524;48.132;8.518;2023-04-05T08:04:32;8.02;;;5.30;;
20725;SDS011;10524;48.132;8.518;2023-04-05T08:06:58;6.85;;;4.90;;
20725;SDS011;10524;48.132;8.518;2023-04-05T08:09:23;6.85;;;4.40;;
20725;SDS011;10524;48.132;8.518;2023-04-05T08:11:49;7.68;;;5.10;;
20725;SDS011;10524;48.132;8.518;2023-04-05T08:14:14;7.50;;;5.28;;
20725;SDS011;10524;48.132;8.518;2023-04-05T08:16:40;8.27;;;5.45;;
20725;SDS011;10524;48.132;8.518;2023-04-05T08:19:06;7.03;;;5.10;;
20725;SDS011;10524;48.132;8.518;2023-04-05T08:21:32;8.80;;;5.25;;
20725;SDS011;10524;48.132;8.518;2023-04-05T08:23:59;6.40;;;4.40;;
20725;SDS011;10524;48.132;8.518;2023-04-05T08:26:24;5.88;;;4.60;;
20725;SDS011;10524;48.132;8.518;2023-04-05T08:28:50;7.10;;;4.60;;
20725;SDS011;10524;48.132;8.518;2023-04-05T08:31:16;6.10;;;4.38;;
20725;SDS011;10524;48.132;8.518;2023-04-05T08:33:42;5.88;;;4.70;;
20725;SDS011;10524;48.132;8.518;2023-04-05T08:36:08;5.55;;;4.45;;
20725;SDS011;10524;48.132;8.518;2023-04-05T08:38:34;6.40;;;4.85;;
20725;SDS011;10524;48.132;8.518;2023-04-05T08:41:11;6.70;;;4.97;;
20725;SDS011;10524;48.132;8.518;2023-04-05T08:43:57;6.43;;;4.40;;
20725;SDS011;10524;48.132;8.518;2023-04-05T08:46:26;7.93;;;4.90;;
20725;SDS011;10524;48.132;8.518;2023-04-05T08:48:58;6.38;;;4.25;;
20725;SDS011;10524;48.132;8.518;2023-04-05T08:51:24;9.45;;;4.70;;
20725;SDS011;10524;48.132;8.518;2023-04-05T08:53:50;6.15;;;4.50;;
20725;SDS011;10524;48.132;8.518;2023-04-05T08:56:20;5.90;;;4.40;;
20725;SDS011;10524;48.132;8.518;2023-04-05T08:59:11;5.43;;;4.40;;
20725;SDS011;10524;48.132;8.518;2023-04-05T09:01:38;7.25;;;4.63;;
20725;SDS011;10524;48.132;8.518;2023-04-05T09:04:11;6.35;;;4.40;;
20725;SDS011;10524;48.132;8.518;2023-04-05T09:07:01;7.20;;;4.35;;
20725;SDS011;10524;48.132;8.518;2023-04-05T09:09:31;5.65;;;4.47;;
20725;SDS011;10524;48.132;8.518;2023-04-05T09:11:58;6.03;;;4.82;;
20725;SDS011;10524;48.132;8.518;2023-04-05T09:14:25;7.13;;;4.57;;
20725;SDS011;10524;48.132;8.518;2023-04-05T09:16:52;6.53;;;4.72;;
20725;SDS011;10524;48.132;8.518;2023-04-05T09:19:19;6.47;;;4.75;;
20725;SDS011;10524;48.132;8.518;2023-04-05T09:22:01;6.97;;;4.85;;
20725;SDS011;10524;48.132;8.518;2023-04-05T09:24:34;7.40;;;4.85;;
20725;SDS011;10524;48.132;8.518;2023-04-05T09:27:05;5.72;;;4.93;;
20725;SDS011;10524;48.132;8.518;2023-04-05T09:29:38;8.07;;;5.22;;
20725;SDS011;10524;48.132;8.518;2023-04-05T09:32:06;7.53;;;5.35;;
20725;SDS011;10524;48.132;8.518;2023-04-05T09:34:33;6.53;;;5.00;;
20725;SDS011;10524;48.132;8.518;2023-04-05T09:37:10;7.32;;;4.95;;
20725;SDS011;10524;48.132;8.518;2023-04-05T09:39:40;7.18;;;4.82;;
20725;SDS011;10524;48.132;8.518;2023-04-05T09:44:49;8.50;;;4.60;;
20725;SDS011;10524;48.132;8.518;2023-04-05T09:47:28;6.03;;;4.65;;
20725;SDS011;10524;48.132;8.518;2023-04-05T09:50:02;6.93;;;4.43;;
20725;SDS011;10524;48.132;8.518;2023-04-05T09:52:40;4.95;;;4.45;;
20725;SDS011;10524;48.132;8.518;2023-04-05T09:55:07;6.20;;;4.45;;
20725;SDS011;10524;48.132;8.518;2023-04-05T09:57:34;4.80;;;3.70;;
20725;SDS011;10524;48.132;8.518;2023-04-05T10:00:01;5.10;;;4.25;;
20725;SDS011;10524;48.132;8.518;2023-04-05T10:02:36;7.30;;;4.50;;
20725;SDS011;10524;48.132;8.518;2023-04-05T10:05:05;9.10;;;5.15;;
20725;SDS011;10524;48.132;8.518;2023-04-05T10:07:32;8.00;;;4.93;;
20725;SDS011;10524;48.132;8.518;2023-04-05T10:09:58;5.30;;;4.75;;
20725;SDS011;10524;48.132;8.518;2023-04-05T10:12:26;7.82;;;4.63;;
20725;SDS011;10524;48.132;8.518;2023-04-05T10:14:52;7.43;;;4.43;;
20725;SDS011;10524;48.132;8.518;2023-04-05T10:25:31;6.07;;;4.70;;
20725;SDS011;10524;48.132;8.518;2023-04-05T10:30:50;5.80;;;4.85;;
20725;SDS011;10524;48.132;8.518;2023-04-05T10:33:34;6.10;;;4.30;;
20725;SDS011;10524;48.132;8.518;2023-04-05T10:39:03;5.70;;;4.60;;
20725;SDS011;10524;48.132;8.518;2023-04-05T10:41:51;6.13;;;4.32;;
20725;SDS011;10524;48.132;8.518;2023-04-05T10:44:18;5.65;;;4.57;;
20725;SDS011;10524;48.132;8.518;2023-04-05T10:46:44;5.93;;;4.70;;
20725;SDS011;10524;48.132;8.518;2023-04-05T10:52:07;5.70;;;4.10;;
20725;SDS011;10524;48.132;8.518;2023-04-05T10:54:34;6.10;;;4.50;;
20725;SDS011;10524;48.132;8.518;2023-04-05T10:57:07;6.43;;;4.75;;
20725;SDS011;10524;48.132;8.518;2023-04-05T10:59:34;6.85;;;4.50;;
20725;SDS011;10524;48.132;8.518;2023-04-05T11:02:00;8.27;;;4.53;;
20725;SDS011;10524;48.132;8.518;2023-04-05T11:04:28;4.97;;;4.07;;
20725;SDS011;10524;48.132;8.518;2023-04-05T11:09:54;5.13;;;4.47;;
20725;SDS011;10524;48.132;8.518;2023-04-05T11:18:04;6.82;;;4.40;;
20725;SDS011;10524;48.132;8.518;2023-04-05T11:23:16;6.63;;;4.20;;
20725;SDS011;10524;48.132;8.518;2023-04-05T11:25:52;5.13;;;4.10;;
20725;SDS011;10524;48.132;8.518;2023-04-05T11:28:42;6.90;;;4.18;;
20725;SDS011;10524;48.132;8.518;2023-04-05T11:33:59;6.45;;;4.90;;
20725;SDS011;10524;48.132;8.518;2023-04-05T11:36:30;5.68;;;4.68;;
20725;SDS011;10524;48.132;8.518;2023-04-05T11:41:52;6.20;;;4.47;;
20725;SDS011;10524;48.132;8.518;2023-04-05T11:47:10;5.40;;;4.75;;
20725;SDS011;10524;48.132;8.518;2023-04-05T11:49:38;5.85;;;4.80;;
20725;SDS011;10524;48.132;8.518;2023-04-05T11:52:12;5.30;;;4.80;;
20725;SDS011;10524;48.132;8.518;2023-04-05T11:54:39;4.85;;;4.30;;
20725;SDS011;10524;48.132;8.518;2023-04-05T11:57:11;6.00;;;4.70;;
20725;SDS011;10524;48.132;8.518;2023-04-05T11:59:42;5.38;;;4.72;;
20725;SDS011;10524;48.132;8.518;2023-04-05T12:02:08;6.28;;;4.80;;
20725;SDS011;10524;48.132;8.518;2023-04-05T12:04:34;7.05;;;4.57;;
20725;SDS011;10524;48.132;8.518;2023-04-05T12:07:14;5.75;;;4.70;;
20725;SDS011;10524;48.132;8.518;2023-04-05T12:09:57;5.40;;;4.88;;
20725;SDS011;10524;48.132;8.518;2023-04-05T12:12:23;5.80;;;5.20;;
20725;SDS011;10524;48.132;8.518;2023-04-05T12:14:49;6.70;;;4.80;;
20725;SDS011;10524;48.132;8.518;2023-04-05T12:17:15;6.40;;;4.88;;
20725;SDS011;10524;48.132;8.518;2023-04-05T12:19:41;5.30;;;4.40;;
20725;SDS011;10524;48.132;8.518;2023-04-05T12:22:07;6.63;;;4.85;;
20725;SDS011;10524;48.132;8.518;2023-04-05T12:24:33;4.50;;;4.10;;
20725;SDS011;10524;48.132;8.518;2023-04-05T12:26:59;6.43;;;4.78;;
20725;SDS011;10524;48.132;8.518;2023-04-05T12:29:25;5.57;;;4.85;;
20725;SDS011;10524;48.132;8.518;2023-04-05T12:31:50;5.78;;;4.95;;
20725;SDS011;10524;48.132;8.518;2023-04-05T12:34:23;5.68;;;4.15;;
20725;SDS011;10524;48.132;8.518;2023-04-05T12:36:50;7.72;;;4.13;;
20725;SDS011;10524;48.132;8.518;2023-04-05T12:39:16;7.88;;;4.50;;
20725;SDS011;10524;48.132;8.518;2023-04-05T12:41:42;6.72;;;4.50;;
20725;SDS011;10524;48.132;8.518;2023-04-05T12:44:13;5.82;;;4.05;;
20725;SDS011;10524;48.132;8.518;2023-04-05T12:49:08;4.97;;;4.20;;
20725;SDS011;10524;48.132;8.518;2023-04-05T12:51:42;4.93;;;4.10;;
20725;SDS011;10524;48.132;8.518;2023-04-05T12:54:11;4.50;;;4.10;;
20725;SDS011;10524;48.132;8.518;2023-04-05T12:56:50;6.10;;;4.93;;
20725;SDS011;10524;48.132;8.518;2023-04-05T13:01:45;6.82;;;4.40;;
20725;SDS011;10524;48.132;8.518;2023-04-05T13:04:11;5.70;;;4.43;;
20725;SDS011;10524;48.132;8.518;2023-04-05T13:06:37;5.13;;;4.00;;
20725;SDS011;10524;48.132;8.518;2023-04-05T13:09:02;6.43;;;4.28;;
20725;SDS011;10524;48.132;8.518;2023-04-05T13:11:28;5.20;;;4.50;;
20725;SDS011;10524;48.132;8.518;2023-04-05T13:13:54;6.22;;;4.28;;
20725;SDS011;10524;48.132;8.518;2023-04-05T13:16:19;5.88;;;4.40;;
20725;SDS011;10524;48.132;8.518;2023-04-05T13:18:45;5.68;;;4.30;;
20725;SDS011;10524;48.132;8.518;2023-04-05T13:21:11;5.78;;;4.38;;
20725;SDS011;10524;48.132;8.518;2023-04-05T13:23:37;5.43;;;4.45;;
20725;SDS011;10524;48.132;8.518;2023-04-05T13:26:04;4.93;;;4.30;;
20725;SDS011;10524;48.132;8.518;2023-04-05T13:28:30;5.18;;;4.68;;
20725;SDS011;10524;48.132;8.518;2023-04-05T13:30:56;5.88;;;4.53;;
20725;SDS011;10524;48.132;8.518;2023-04-05T13:33:22;5.40;;;4.32;;
20725;SDS011;10524;48.132;8.518;2023-04-05T13:35:48;4.25;;;3.85;;
20725;SDS011;10524;48.132;8.518;2023-04-05T13:38:14;5.95;;;4.13;;
20725;SDS011;10524;48.132;8.518;2023-04-05T13:40:40;4.53;;;3.65;;
20725;SDS011;10524;48.132;8.518;2023-04-05T13:43:06;5.05;;;3.92;;
20725;SDS011;10524;48.132;8.518;2023-04-05T13:45:32;5.13;;;3.90;;
20725;SDS011;10524;48.132;8.518;2023-04-05T13:47:58;5.20;;;4.22;;
20725;SDS011;10524;48.132;8.518;2023-04-05T13:50:24;4.47;;;4.07;;
20725;SDS011;10524;48.132;8.518;2023-04-05T13:52:50;6.15;;;4.15;;
20725;SDS011;10524;48.132;8.518;2023-04-05T13:55:16;4.10;;;3.70;;
20725;SDS011;10524;48.132;8.518;2023-04-05T13:57:42;4.47;;;3.70;;
20725;SDS011;10524;48.132;8.518;2023-04-05T14:00:08;4.47;;;3.75;;
20725;SDS011;10524;48.132;8.518;2023-04-05T14:02:34;4.43;;;3.90;;
20725;SDS011;10524;48.132;8.518;2023-04-05T14:05:00;5.07;;;3.60;;
20725;SDS011;10524;48.132;8.518;2023-04-05T14:07:26;3.97;;;3.58;;
20725;SDS011;10524;48.132;8.518;2023-04-05T14:09:52;5.05;;;3.83;;
20725;SDS011;10524;48.132;8.518;2023-04-05T14:12:18;5.05;;;3.95;;
20725;SDS011;10524;48.132;8.518;2023-04-05T14:14:43;4.47;;;3.85;;
20725;SDS011;10524;48.132;8.518;2023-04-05T14:17:09;3.90;;;3.50;;
20725;SDS011;10524;48.132;8.518;2023-04-05T14:19:36;4.80;;;3.70;;
20725;SDS011;10524;48.132;8.518;2023-04-05T14:22:02;5.43;;;3.75;;
20725;SDS011;10524;48.132;8.518;2023-04-05T14:24:28;4.55;;;3.97;;
20725;SDS011;10524;48.132;8.518;2023-04-05T14:26:53;5.40;;;4.15;;
20725;SDS011;10524;48.132;8.518;2023-04-05T14:29:20;4.90;;;3.85;;
20725;SDS011;10524;48.132;8.518;2023-04-05T14:31:46;5.18;;;4.22;;
20725;SDS011;10524;48.132;8.518;2023-04-05T14:34:12;4.88;;;3.80;;
20725;SDS011;10524;48.132;8.518;2023-04-05T14:36:38;5.13;;;4.10;;
20725;SDS011;10524;48.132;8.518;2023-04-05T14:39:04;5.90;;;4.18;;
20725;SDS011;10524;48.132;8.518;2023-04-05T14:41:30;8.10;;;4.80;;
20725;SDS011;10524;48.132;8.518;2023-04-05T14:43:56;4.75;;;3.80;;
20725;SDS011;10524;48.132;8.518;2023-04-05T14:46:22;4.30;;;3.88;;
20725;SDS011;10524;48.132;8.518;2023-04-05T14:48:48;5.18;;;3.75;;
20725;SDS011;10524;48.132;8.518;2023-04-05T14:51:13;5.72;;;4.20;;
20725;SDS011;10524;48.132;8.518;2023-04-05T14:53:39;4.43;;;3.88;;
20725;SDS011;10524;48.132;8.518;2023-04-05T14:56:05;6.32;;;3.97;;
20725;SDS011;10524;48.132;8.518;2023-04-05T14:58:34;4.85;;;4.00;;
20725;SDS011;10524;48.132;8.518;2023-04-05T15:00:59;5.22;;;4.20;;
20725;SDS011;10524;48.132;8.518;2023-04-05T15:03:25;4.60;;;4.10;;
20725;SDS011;10524;48.132;8.518;2023-04-05T15:05:51;4.82;;;4.32;;
20725;SDS011;10524;48.132;8.518;2023-04-05T15:08:17;7.40;;;4.35;;
20725;SDS011;10524;48.132;8.518;2023-04-05T15:10:42;5.22;;;4.00;;
20725;SDS011;10524;48.132;8.518;2023-04-05T15:13:10;4.47;;;4.03;;
20725;SDS011;10524;48.132;8.518;2023-04-05T15:15:36;4.13;;;3.60;;
20725;SDS011;10524;48.132;8.518;2023-04-05T15:18:02;4.43;;;3.80;;
20725;SDS011;10524;48.132;8.518;2023-04-05T15:20:27;5.18;;;3.80;;
20725;SDS011;10524;48.132;8.518;2023-04-05T15:22:53;4.35;;;3.50;;
20725;SDS011;10524;48.132;8.518;2023-04-05T15:25:19;5.03;;;4.00;;
20725;SDS011;10524;48.132;8.518;2023-04-05T15:27:44;3.92;;;3.38;;
20725;SDS011;10524;48.132;8.518;2023-04-05T15:30:10;3.80;;;3.38;;
20725;SDS011;10524;48.132;8.518;2023-04-05T15:32:36;4.82;;;3.33;;
20725;SDS011;10524;48.132;8.518;2023-04-05T15:35:02;4.15;;;3.30;;
20725;SDS011;10524;48.132;8.518;2023-04-05T15:37:28;4.20;;;3.40;;
20725;SDS011;10524;48.132;8.518;2023-04-05T15:39:53;4.45;;;3.30;;
20725;SDS011;10524;48.132;8.518;2023-04-05T15:42:19;3.38;;;2.97;;